createdAt,value
2023-01-01T00:00:27.021Z,95834.69
2023-01-01T00:02:53.594Z,95833.88
2023-01-01T00:05:20.087Z,95836.88
2023-01-01T00:07:46.579Z,95830.69
2023-01-01T00:10:13.047Z,95830.69
2023-01-01T00:12:39.565Z,95832.56
2023-01-01T00:15:06.886Z,95830.69
2023-01-01T00:17:33.438Z,95824.44
2023-01-01T00:19:59.904Z,95826.84
2023-01-01T00:25:13.006Z,95831.06
2023-01-01T00:27:40.447Z,95827.28
2023-01-01T00:30:09.579Z,95825.25
2023-01-01T00:32:36.337Z,95827.66
2023-01-01T00:35:03.076Z,95832.22
2023-01-01T00:37:29.752Z,95838.97
2023-01-01T00:39:56.291Z,95839.47
2023-01-01T00:42:23.000Z,95838.84
2023-01-01T00:44:49.523Z,95843.69
2023-01-01T00:47:15.973Z,95846.59
2023-01-01T00:49:42.500Z,95845.00
2023-01-01T00:52:08.992Z,95850.41
2023-01-01T00:54:35.520Z,95851.22
2023-01-01T00:57:02.087Z,95865.66
2023-01-01T00:59:29.229Z,95874.09
2023-01-01T01:01:56.313Z,95875.78
2023-01-01T01:04:23.218Z,95875.84
2023-01-01T01:06:49.883Z,95875.66
2023-01-01T01:09:16.509Z,95887.09
2023-01-01T01:11:43.142Z,95904.72
2023-01-01T01:14:09.679Z,95898.31
2023-01-01T01:16:36.370Z,95895.41
2023-01-01T01:19:05.654Z,95893.00
2023-01-01T01:21:34.034Z,95894.06
2023-01-01T01:24:02.460Z,95897.09
2023-01-01T01:26:31.623Z,95901.19
2023-01-01T01:28:58.272Z,95901.19
2023-01-01T01:31:28.429Z,95907.72
2023-01-01T01:33:55.242Z,95911.50
2023-01-01T01:36:22.167Z,95909.09
2023-01-01T01:38:48.871Z,95914.53
2023-01-01T01:41:27.340Z,95908.59
2023-01-01T01:44:00.988Z,95902.69
2023-01-01T01:46:41.418Z,95907.28
2023-01-01T01:49:20.474Z,95915.19
2023-01-01T01:51:47.911Z,95907.66
2023-01-01T01:54:19.658Z,95917.16
2023-01-01T01:56:54.267Z,95915.88
2023-01-01T01:59:24.724Z,95922.16
2023-01-01T02:01:52.432Z,95918.97
2023-01-01T02:04:18.911Z,95917.94
2023-01-01T02:06:45.835Z,95922.31
2023-01-01T02:09:13.262Z,95925.59
2023-01-01T02:11:39.815Z,95916.47
2023-01-01T02:14:06.867Z,95903.53
2023-01-01T02:16:57.836Z,95906.59
2023-01-01T02:19:44.608Z,95905.28
2023-01-01T02:22:27.011Z,95911.28
2023-01-01T02:25:14.182Z,95907.56
2023-01-01T02:27:52.649Z,95908.13
2023-01-01T02:30:19.997Z,95895.97
2023-01-01T02:32:51.860Z,95899.84
2023-01-01T02:35:22.834Z,95894.72
2023-01-01T02:37:52.195Z,95891.53
2023-01-01T02:40:21.996Z,95887.78
2023-01-01T02:42:50.621Z,95888.91
2023-01-01T02:45:17.178Z,95901.88
2023-01-01T02:47:43.823Z,95899.47
2023-01-01T02:50:18.962Z,95887.06
2023-01-01T02:52:57.257Z,95891.66
2023-01-01T02:55:47.820Z,95891.66
2023-01-01T02:58:25.267Z,95881.94
2023-01-01T03:00:56.729Z,95890.84
2023-01-01T03:03:40.173Z,95887.84
2023-01-01T03:06:26.006Z,95896.47
2023-01-01T03:09:29.491Z,95899.72
2023-01-01T03:12:32.075Z,95893.72
2023-01-01T03:15:06.986Z,95893.94
2023-01-01T03:17:38.252Z,95886.81
2023-01-01T03:20:11.831Z,95892.47
2023-01-01T03:25:12.133Z,95877.25
2023-01-01T03:27:48.842Z,95873.97
2023-01-01T03:30:17.931Z,95878.00
2023-01-01T03:32:54.484Z,95886.91
2023-01-01T03:35:24.515Z,95891.22
2023-01-01T03:37:55.760Z,95900.16
2023-01-01T03:40:23.235Z,95902.56
2023-01-01T03:42:59.413Z,95905.56
2023-01-01T03:45:31.408Z,95909.06
2023-01-01T03:47:57.894Z,95914.19
2023-01-01T03:50:32.151Z,95915.81
2023-01-01T03:53:17.044Z,95913.41
2023-01-01T03:55:53.942Z,95906.06
2023-01-01T03:58:40.891Z,95917.19
2023-01-01T04:01:37.831Z,95917.47
2023-01-01T04:04:06.720Z,95920.19
2023-01-01T04:06:33.560Z,95921.66
2023-01-01T04:09:03.002Z,95933.50
2023-01-01T04:11:32.493Z,95940.03
2023-01-01T04:14:01.215Z,95938.41
2023-01-01T04:16:27.845Z,95954.13
2023-01-01T04:18:54.553Z,95959.03
2023-01-01T04:21:21.109Z,95961.22
2023-01-01T04:23:47.695Z,95958.81
2023-01-01T04:26:15.256Z,95969.13
2023-01-01T04:28:42.680Z,95961.28
2023-01-01T04:31:10.066Z,95958.09
2023-01-01T04:33:36.955Z,95949.44
2023-01-01T04:36:09.580Z,95955.41
2023-01-01T04:38:37.438Z,95953.81
2023-01-01T04:41:04.708Z,95946.28
2023-01-01T04:43:32.158Z,95943.34
2023-01-01T04:46:01.086Z,95954.44
2023-01-01T04:48:29.207Z,95949.34
2023-01-01T04:51:01.442Z,95952.91
2023-01-01T04:53:33.278Z,95960.50
2023-01-01T04:56:13.232Z,95962.69
2023-01-01T04:58:41.264Z,95951.66
2023-01-01T05:01:08.801Z,95960.34
2023-01-01T05:03:37.067Z,95965.53
2023-01-01T05:06:04.921Z,95962.13
2023-01-01T05:08:33.037Z,95964.53
2023-01-01T05:11:05.541Z,95964.06
2023-01-01T05:13:37.388Z,95974.59
2023-01-01T05:16:05.912Z,95974.88
2023-01-01T05:18:33.188Z,95975.44
2023-01-01T05:21:01.092Z,95972.81
2023-01-01T05:23:30.639Z,95967.97
2023-01-01T05:25:57.702Z,95968.75
2023-01-01T05:28:24.561Z,95971.53
2023-01-01T05:30:52.231Z,95966.69
2023-01-01T05:33:19.580Z,95980.47
2023-01-01T05:35:46.269Z,95975.38
2023-01-01T05:38:12.760Z,95975.38
2023-01-01T05:40:39.546Z,95972.38
2023-01-01T05:43:07.381Z,95974.28
2023-01-01T05:45:34.098Z,95966.97
2023-01-01T05:48:00.749Z,95967.50
2023-01-01T05:50:27.285Z,95974.50
2023-01-01T05:52:53.766Z,95971.81
2023-01-01T05:55:20.331Z,95980.75
2023-01-01T05:57:46.833Z,95982.63
2023-01-01T06:00:14.225Z,95979.63
2023-01-01T06:02:40.865Z,95977.50
2023-01-01T06:05:07.815Z,95985.31
2023-01-01T06:07:34.301Z,95981.31
2023-01-01T06:10:02.127Z,95987.00
2023-01-01T06:12:28.869Z,95996.47
2023-01-01T06:14:55.331Z,95996.25
2023-01-01T06:17:21.806Z,96000.59
2023-01-01T06:19:48.303Z,96001.16
2023-01-01T06:22:14.842Z,96006.28
2023-01-01T06:24:41.305Z,96016.88
2023-01-01T06:27:07.835Z,96022.84
2023-01-01T06:29:34.363Z,96016.38
2023-01-01T06:32:00.941Z,96017.47
2023-01-01T06:34:27.442Z,96020.75
2023-01-01T06:36:53.923Z,96030.22
2023-01-01T06:39:20.597Z,96026.72
2023-01-01T06:41:47.161Z,96024.84
2023-01-01T06:44:13.884Z,96032.41
2023-01-01T06:46:40.501Z,96032.69
2023-01-01T06:49:11.488Z,96035.69
2023-01-01T06:51:42.921Z,96033.84
2023-01-01T06:54:10.576Z,96035.72
2023-01-01T06:56:37.487Z,96026.28
2023-01-01T06:59:05.158Z,96033.84
2023-01-01T07:01:33.704Z,96041.44
2023-01-01T07:04:03.205Z,96037.09
2023-01-01T07:06:32.075Z,96040.91
2023-01-01T07:08:58.854Z,96037.38
2023-01-01T07:11:26.078Z,96049.56
2023-01-01T07:13:53.071Z,96040.34
2023-01-01T07:16:20.618Z,96048.47
2023-01-01T07:18:47.234Z,96050.38
2023-01-01T07:21:53.740Z,96057.69
2023-01-01T07:24:21.257Z,96061.72
2023-01-01T07:26:49.717Z,96065.53
2023-01-01T07:29:16.291Z,96070.09
2023-01-01T07:31:44.225Z,96070.09
2023-01-01T07:34:16.283Z,96079.31
2023-01-01T07:36:42.809Z,96082.81
2023-01-01T07:39:10.477Z,96082.53
2023-01-01T07:41:37.089Z,96082.81
2023-01-01T07:44:03.719Z,96084.16
2023-01-01T07:46:30.311Z,96094.38
2023-01-01T07:48:58.061Z,96092.22
2023-01-01T07:51:24.760Z,96093.00
2023-01-01T07:53:51.253Z,96105.16
2023-01-01T07:56:18.062Z,96095.41
2023-01-01T07:58:44.611Z,96104.84
2023-01-01T08:01:13.241Z,96107.78
2023-01-01T08:03:40.232Z,96116.13
2023-01-01T08:06:12.325Z,96107.19
2023-01-01T08:08:39.011Z,96107.19
2023-01-01T08:11:05.972Z,96106.34
2023-01-01T08:13:32.742Z,96111.44
2023-01-01T08:15:59.353Z,96123.03
2023-01-01T08:18:26.079Z,96120.00
2023-01-01T08:20:52.596Z,96125.13
2023-01-01T08:23:19.156Z,96117.47
2023-01-01T08:25:45.776Z,96109.59
2023-01-01T08:28:12.272Z,96109.25
2023-01-01T08:30:38.773Z,96103.53
2023-01-01T08:33:05.258Z,96113.22
2023-01-01T08:35:31.860Z,96109.88
2023-01-01T08:37:58.326Z,96109.25
2023-01-01T08:40:24.803Z,96105.41
2023-01-01T08:42:51.305Z,96099.38
2023-01-01T08:45:17.937Z,96096.88
2023-01-01T08:47:44.471Z,96106.78
2023-01-01T08:50:11.155Z,96112.34
2023-01-01T08:52:37.714Z,96109.84
2023-01-01T08:55:04.539Z,96101.88
2023-01-01T08:57:31.254Z,96111.78
2023-01-01T08:59:57.709Z,96104.63
2023-01-01T09:02:24.365Z,96118.06
2023-01-01T09:04:51.985Z,96114.69
2023-01-01T09:07:18.913Z,96115.38
2023-01-01T09:09:45.409Z,96108.69
2023-01-01T09:12:15.815Z,96114.81
2023-01-01T09:14:42.883Z,96123.63
2023-01-01T09:17:09.460Z,96123.16
2023-01-01T09:19:35.980Z,96118.09
2023-01-01T09:22:02.655Z,96120.34
2023-01-01T09:24:29.354Z,96122.59
2023-01-01T09:26:58.024Z,96120.19
2023-01-01T09:29:24.737Z,96118.91
2023-01-01T09:31:51.303Z,96122.78
2023-01-01T09:34:18.103Z,96138.78
2023-01-01T09:36:46.171Z,96145.94
2023-01-01T09:39:14.785Z,96137.59
2023-01-01T09:42:40.207Z,96137.69
2023-01-01T09:45:17.211Z,96143.44
2023-01-01T09:47:50.948Z,96138.16
2023-01-01T09:50:19.605Z,96140.16
2023-01-01T09:52:54.190Z,96134.28
2023-01-01T09:55:43.606Z,96126.22
2023-01-01T09:58:11.955Z,96127.63
2023-01-01T10:00:45.355Z,96125.78
2023-01-01T10:03:35.152Z,96116.91
2023-01-01T10:06:23.491Z,96105.66
2023-01-01T10:09:26.365Z,96114.25
2023-01-01T10:11:57.529Z,96105.41
2023-01-01T10:14:39.092Z,96106.16
2023-01-01T10:17:18.373Z,96103.84
2023-01-01T10:19:50.519Z,96094.47
2023-01-01T10:22:22.572Z,96093.59
2023-01-01T10:25:00.975Z,96089.31
2023-01-01T10:27:46.244Z,96089.69
2023-01-01T10:30:17.210Z,96085.72
2023-01-01T10:32:56.995Z,96075.50
2023-01-01T10:35:30.866Z,96081.59
2023-01-01T10:38:00.019Z,96076.78
2023-01-01T10:40:28.640Z,96079.06
2023-01-01T10:43:00.903Z,96062.50
2023-01-01T10:45:32.945Z,96065.06
2023-01-01T10:48:13.445Z,96060.22
2023-01-01T10:50:46.304Z,96054.06
2023-01-01T10:53:21.531Z,96051.16
2023-01-01T10:55:50.575Z,96056.75
2023-01-01T10:58:41.267Z,96056.38
2023-01-01T11:01:10.865Z,96047.31
2023-01-01T11:03:37.840Z,96050.03
2023-01-01T11:06:20.320Z,96047.94
2023-01-01T11:08:49.792Z,96048.53
2023-01-01T11:11:22.084Z,96048.34
2023-01-01T11:13:54.612Z,96043.03
2023-01-01T11:16:22.066Z,96046.69
2023-01-01T11:18:50.503Z,96040.91
2023-01-01T11:21:23.120Z,96039.66
2023-01-01T11:24:07.950Z,96045.72
2023-01-01T11:26:34.418Z,96037.19
2023-01-01T11:29:18.879Z,96033.31
2023-01-01T11:31:47.051Z,96029.59
2023-01-01T11:34:33.728Z,96025.91
2023-01-01T11:37:19.157Z,96015.72
2023-01-01T11:39:49.203Z,96018.25
2023-01-01T11:42:22.453Z,96014.84
2023-01-01T11:44:53.834Z,96018.88
2023-01-01T11:47:26.088Z,96014.19
2023-01-01T11:50:12.213Z,96009.16
2023-01-01T11:52:41.141Z,96017.53
2023-01-01T11:55:25.950Z,96010.91
2023-01-01T11:58:19.214Z,96008.63
2023-01-01T12:00:49.298Z,96010.38
2023-01-01T12:03:33.378Z,96006.63
2023-01-01T12:06:03.461Z,96000.50
2023-01-01T12:08:39.576Z,95996.63
2023-01-01T12:11:10.536Z,95994.81
2023-01-01T12:13:59.804Z,95996.28
2023-01-01T12:16:50.448Z,95999.03
2023-01-01T12:19:45.532Z,96004.16
2023-01-01T12:22:17.703Z,96002.56
2023-01-01T12:24:46.273Z,96001.44
2023-01-01T12:27:25.210Z,95991.94
2023-01-01T12:29:57.975Z,95994.00
2023-01-01T12:32:33.419Z,95992.88
2023-01-01T12:35:18.410Z,95990.16
2023-01-01T12:38:10.175Z,95992.22
2023-01-01T12:40:50.472Z,95981.38
2023-01-01T12:44:11.104Z,95983.66
2023-01-01T12:46:45.075Z,95976.59
2023-01-01T12:49:23.445Z,95975.78
2023-01-01T12:52:04.110Z,95982.38
2023-01-01T12:55:13.104Z,95974.53
2023-01-01T12:57:51.935Z,95968.94
2023-01-01T13:00:20.544Z,95972.91
2023-01-01T13:03:00.649Z,95968.59
2023-01-01T13:05:45.529Z,95969.72
2023-01-01T13:08:12.179Z,95965.03
2023-01-01T13:10:42.833Z,95969.25
2023-01-01T13:13:12.543Z,95969.94
2023-01-01T13:15:39.045Z,95961.25
2023-01-01T13:18:08.443Z,95977.69
2023-01-01T13:20:42.439Z,95973.22
2023-01-01T13:23:33.686Z,95966.59
2023-01-01T13:26:18.071Z,95976.28
2023-01-01T13:28:59.727Z,95971.94
2023-01-01T13:31:38.162Z,95978.53
2023-01-01T13:34:32.277Z,95975.69
2023-01-01T13:37:24.525Z,95975.56
2023-01-01T13:40:00.726Z,95979.91
2023-01-01T13:42:47.280Z,95969.63
2023-01-01T13:45:15.539Z,95970.75
2023-01-01T13:48:05.541Z,95972.22
2023-01-01T13:50:52.249Z,95970.13
2023-01-01T13:53:46.275Z,95960.34
2023-01-01T13:56:24.703Z,95970.00
2023-01-01T13:59:30.940Z,95969.88
2023-01-01T14:02:17.583Z,95975.22
2023-01-01T14:04:46.631Z,95973.16
2023-01-01T14:10:18.168Z,95984.59
2023-01-01T14:12:44.898Z,95981.41
2023-01-01T14:15:23.718Z,95983.69
2023-01-01T14:17:52.245Z,95992.22
2023-01-01T14:20:22.832Z,95992.09
2023-01-01T14:22:51.829Z,95996.28
2023-01-01T14:25:26.825Z,95993.41
2023-01-01T14:27:56.669Z,95997.59
2023-01-01T14:30:24.748Z,95992.47
2023-01-01T14:32:57.933Z,95994.75
2023-01-01T14:35:25.274Z,95991.34
2023-01-01T14:37:52.001Z,95986.22
2023-01-01T14:40:28.985Z,95990.41
2023-01-01T14:43:09.589Z,95993.34
2023-01-01T14:45:36.906Z,95989.66
2023-01-01T14:48:05.287Z,95990.66
2023-01-01T14:50:33.600Z,95994.38
2023-01-01T14:53:06.702Z,95992.63
2023-01-01T14:55:39.551Z,95992.34
2023-01-01T14:58:06.630Z,95987.03
2023-01-01T15:00:34.081Z,95983.72
2023-01-01T15:03:12.385Z,95990.00
2023-01-01T15:05:39.351Z,95985.53
2023-01-01T15:08:07.829Z,95982.16
2023-01-01T15:10:38.337Z,95993.91
2023-01-01T15:13:07.020Z,95981.88
2023-01-01T15:15:34.777Z,95994.44
2023-01-01T15:18:01.257Z,95990.13
2023-01-01T15:20:27.966Z,95994.97
2023-01-01T15:22:54.958Z,95994.94
2023-01-01T15:25:21.700Z,95988.69
2023-01-01T15:27:50.534Z,95990.63
2023-01-01T15:30:29.167Z,95997.19
2023-01-01T15:32:56.479Z,95995.28
2023-01-01T15:35:32.594Z,95999.91
2023-01-01T15:38:18.219Z,95998.63
2023-01-01T15:40:51.019Z,95996.38
2023-01-01T15:43:20.869Z,95994.28
2023-01-01T15:46:11.618Z,95993.00
2023-01-01T15:48:48.817Z,95995.22
2023-01-01T15:51:24.381Z,95987.31
2023-01-01T15:54:00.774Z,95993.53
2023-01-01T15:56:30.555Z,96000.56
2023-01-01T15:59:09.105Z,95996.19
2023-01-01T16:01:40.203Z,95996.16
2023-01-01T16:04:28.260Z,95992.28
2023-01-01T16:06:57.406Z,95987.59
2023-01-01T16:09:24.047Z,95990.75
2023-01-01T16:11:56.050Z,96002.91
2023-01-01T16:14:23.643Z,95999.00
2023-01-01T16:16:58.289Z,96002.97
2023-01-01T16:19:25.322Z,96003.41
2023-01-01T16:21:51.852Z,95998.41
2023-01-01T16:24:19.665Z,96000.75
2023-01-01T16:26:47.739Z,96003.63
2023-01-01T16:29:15.584Z,95993.91
2023-01-01T16:31:43.145Z,96001.56
2023-01-01T16:34:16.975Z,95997.34
2023-01-01T16:36:44.779Z,95993.97
2023-01-01T16:39:11.721Z,95999.81
2023-01-01T16:41:42.398Z,95997.53
2023-01-01T16:44:12.690Z,95997.63
2023-01-01T16:46:39.221Z,95998.88
2023-01-01T16:49:05.770Z,95982.66
2023-01-01T16:51:33.158Z,95981.94
2023-01-01T16:54:00.081Z,95983.16
2023-01-01T16:56:28.303Z,95988.41
2023-01-01T16:59:02.311Z,95984.91
2023-01-01T17:01:30.117Z,95983.50
2023-01-01T17:03:56.800Z,95979.00
2023-01-01T17:06:23.317Z,95979.91
2023-01-01T17:08:50.835Z,95976.19
2023-01-01T17:11:18.710Z,95970.38
2023-01-01T17:13:47.216Z,95967.75
2023-01-01T17:16:21.154Z,95979.53
2023-01-01T17:21:40.712Z,95977.22
2023-01-01T17:24:07.508Z,95981.50
2023-01-01T17:26:34.352Z,95979.41
2023-01-01T17:29:01.419Z,95985.22
2023-01-01T17:31:28.299Z,95978.81
2023-01-01T17:33:54.875Z,95988.16
2023-01-01T17:36:21.341Z,95981.69
2023-01-01T17:38:47.943Z,95970.94
2023-01-01T17:41:16.382Z,95979.19
2023-01-01T17:43:46.035Z,95976.53
2023-01-01T17:46:15.158Z,95968.81
2023-01-01T17:48:43.114Z,95972.41
2023-01-01T17:51:09.969Z,95973.59
2023-01-01T17:53:36.674Z,95965.84
2023-01-01T17:56:03.249Z,95965.94
2023-01-01T17:58:35.257Z,95967.44
2023-01-01T18:01:23.704Z,95961.56
2023-01-01T18:04:09.017Z,95966.56
2023-01-01T18:06:42.545Z,95963.94
2023-01-01T18:09:12.984Z,95959.69
2023-01-01T18:11:39.784Z,95968.69
2023-01-01T18:14:06.388Z,95965.28
2023-01-01T18:16:35.833Z,95967.25
2023-01-01T18:19:02.577Z,95961.63
2023-01-01T18:21:30.212Z,95957.59
2023-01-01T18:23:57.945Z,95959.78
2023-01-01T18:26:27.657Z,95960.88
2023-01-01T18:28:59.311Z,95954.66
2023-01-01T18:31:27.517Z,95954.38
2023-01-01T18:33:54.708Z,95955.97
2023-01-01T18:36:25.657Z,95954.06
2023-01-01T18:39:09.714Z,95949.16
2023-01-01T18:41:48.457Z,95952.38
2023-01-01T18:44:25.928Z,95939.38
2023-01-01T18:47:01.962Z,95947.69
2023-01-01T18:49:28.521Z,95936.56
2023-01-01T18:52:12.456Z,95940.59
2023-01-01T18:54:39.059Z,95939.19
2023-01-01T18:57:13.626Z,95936.97
2023-01-01T18:59:40.453Z,95934.81
2023-01-01T19:02:33.740Z,95938.31
2023-01-01T19:05:13.909Z,95940.72
2023-01-01T19:07:41.819Z,95935.00
2023-01-01T19:10:14.158Z,95924.97
2023-01-01T19:12:40.760Z,95926.78
2023-01-01T19:15:18.027Z,95925.69
2023-01-01T19:17:44.990Z,95919.41
2023-01-01T19:20:21.559Z,95921.81
2023-01-01T19:22:48.273Z,95919.59
2023-01-01T19:25:37.074Z,95922.00
2023-01-01T19:28:15.561Z,95908.16
2023-01-01T19:30:43.730Z,95913.28
2023-01-01T19:33:10.237Z,95919.22
2023-01-01T19:35:36.954Z,95920.06
2023-01-01T19:38:03.755Z,95912.13
2023-01-01T19:40:30.630Z,95915.03
2023-01-01T19:42:57.852Z,95914.16
2023-01-01T19:45:24.714Z,95915.19
2023-01-01T19:47:51.223Z,95910.25
2023-01-01T19:50:17.719Z,95915.06
2023-01-01T19:52:44.242Z,95918.78
2023-01-01T19:55:10.773Z,95907.63
2023-01-01T19:57:37.250Z,95914.88
2023-01-01T20:00:04.437Z,95910.47
2023-01-01T20:02:47.605Z,95900.13
2023-01-01T20:05:14.739Z,95893.00
2023-01-01T20:07:41.349Z,95896.72
2023-01-01T20:10:08.312Z,95892.59
2023-01-01T20:12:34.966Z,95890.09
2023-01-01T20:15:01.502Z,95888.38
2023-01-01T20:17:28.117Z,95878.53
2023-01-01T20:19:54.668Z,95875.50
2023-01-01T20:22:21.139Z,95874.31
2023-01-01T20:24:48.222Z,95868.28
2023-01-01T20:27:16.565Z,95868.75
2023-01-01T20:29:43.854Z,95864.03
2023-01-01T20:32:10.662Z,95870.47
2023-01-01T20:34:37.348Z,95859.50
2023-01-01T20:37:03.861Z,95856.19
2023-01-01T20:39:30.425Z,95855.59
2023-01-01T20:41:57.075Z,95846.00
2023-01-01T20:44:23.844Z,95850.03
2023-01-01T20:46:50.336Z,95849.72
2023-01-01T20:49:17.906Z,95845.63
2023-01-01T20:51:45.599Z,95849.44
2023-01-01T20:54:12.196Z,95846.72
2023-01-01T20:56:38.738Z,95847.50
2023-01-01T20:59:24.623Z,95845.63
2023-01-01T21:01:52.158Z,95842.06
2023-01-01T21:04:18.827Z,95849.72
2023-01-01T21:06:45.304Z,95847.81
2023-01-01T21:09:11.802Z,95843.50
2023-01-01T21:11:38.420Z,95839.19
2023-01-01T21:14:05.020Z,95839.47
2023-01-01T21:16:34.591Z,95838.69
2023-01-01T21:19:02.323Z,95841.41
2023-01-01T21:21:41.677Z,95837.06
2023-01-01T21:24:19.199Z,95838.47
2023-01-01T21:26:46.093Z,95833.34
2023-01-01T21:29:19.256Z,95828.22
2023-01-01T21:31:47.166Z,95836.38
2023-01-01T21:34:24.796Z,95842.75
2023-01-01T21:36:51.366Z,95839.50
2023-01-01T21:39:28.974Z,95839.00
2023-01-01T21:42:06.318Z,95840.22
2023-01-01T21:44:33.065Z,95843.56
2023-01-01T21:47:02.166Z,95849.09
2023-01-01T21:49:36.671Z,95846.97
2023-01-01T21:52:15.121Z,95849.50
2023-01-01T21:54:41.808Z,95858.25
2023-01-01T21:57:18.770Z,95857.53
2023-01-01T21:59:50.607Z,95859.25
2023-01-01T22:02:38.413Z,95858.84
2023-01-01T22:05:30.314Z,95868.78
2023-01-01T22:07:58.151Z,95865.88
2023-01-01T22:10:26.721Z,95865.25
2023-01-01T22:12:59.283Z,95881.53
2023-01-01T22:15:26.505Z,95874.00
2023-01-01T22:18:04.135Z,95868.19
2023-01-01T22:20:34.558Z,95868.28
2023-01-01T22:23:05.244Z,95864.03
2023-01-01T22:25:32.915Z,95860.59
2023-01-01T22:28:15.249Z,95860.53
2023-01-01T22:30:43.771Z,95867.09
2023-01-01T22:33:19.196Z,95869.06
2023-01-01T22:35:45.778Z,95868.34
2023-01-01T22:38:21.529Z,95863.28
2023-01-01T22:40:51.620Z,95869.94
2023-01-01T22:43:23.447Z,95860.28
2023-01-01T22:45:50.704Z,95855.22
2023-01-01T22:48:38.343Z,95868.81
2023-01-01T22:51:21.615Z,95870.59
2023-01-01T22:53:48.653Z,95879.28
2023-01-01T22:56:16.078Z,95861.00
2023-01-01T22:58:42.617Z,95859.19
2023-01-01T23:01:09.635Z,95869.28
2023-01-01T23:03:36.145Z,95848.81
2023-01-01T23:06:03.341Z,95857.00
2023-01-01T23:08:30.289Z,95855.97
2023-01-01T23:10:57.900Z,95855.25
2023-01-01T23:13:24.393Z,95854.50
2023-01-01T23:15:55.616Z,95847.25
2023-01-01T23:18:22.416Z,95829.50
2023-01-01T23:20:48.905Z,95830.38
2023-01-01T23:23:15.541Z,95823.94
2023-01-01T23:25:42.143Z,95834.84
2023-01-01T23:28:09.103Z,95836.50
2023-01-01T23:30:35.946Z,95834.66
2023-01-01T23:33:02.530Z,95832.31
2023-01-01T23:35:29.240Z,95824.28
2023-01-01T23:37:55.905Z,95836.75
2023-01-01T23:40:22.450Z,95843.81
2023-01-01T23:42:49.006Z,95843.88
2023-01-01T23:45:15.642Z,95834.16
2023-01-01T23:47:42.249Z,95828.53
2023-01-01T23:50:09.116Z,95831.81
2023-01-01T23:52:35.893Z,95819.47
2023-01-01T23:55:02.456Z,95814.63
2023-01-01T23:57:29.117Z,95804.41
2023-01-01T23:59:55.702Z,95807.66
